Time;durP1;ratioP1;P1;durP2;ratioP2;P2;SDS_P1;SDS_P2;PMS_P1;PMS_P2;Temp;Humidity;BMP_temperature;BMP_pressure;BME280_temperature;BME280_humidity;BME280_pressure;Samples;Min_cycle;Max_cycle;Signal;HPM_P1;HPM_P2
2023/07/13 00:00:51;;;;;;;6.78;5.43;;;;;;;;;;4390552;32;317002;-81
2023/07/13 00:03:18;;;;;;;8.73;5.32;;;;;;;;;;4387901;32;316602;-81
2023/07/13 00:05:47;;;;;;;8.45;5.40;;;;;;;;;;4381043;32;316582;-81
2023/07/13 00:08:15;;;;;;;10.25;5.30;;;;;;;;;;4399013;32;316912;-81
2023/07/13 00:10:44;;;;;;;9.50;4.78;;;;;;;;;;4389668;32;317740;-81
2023/07/13 00:13:11;;;;;;;12.07;5.10;;;;;;;;;;4400586;32;316769;-81
2023/07/13 00:15:40;;;;;;;9.50;5.50;;;;;;;;;;4389376;32;317797;-81
2023/07/13 00:18:07;;;;;;;8.95;5.53;;;;;;;;;;4399831;32;316645;-81
2023/07/13 00:20:35;;;;;;;13.95;5.90;;;;;;;;;;4389843;32;316837;-81
2023/07/13 00:23:04;;;;;;;8.20;5.97;;;;;;;;;;4399040;32;317760;-81
2023/07/13 00:25:32;;;;;;;9.67;6.00;;;;;;;;;;4389936;32;316847;-80
2023/07/13 00:27:59;;;;;;;10.93;5.97;;;;;;;;;;4401005;32;316667;-81
2023/07/13 00:30:26;;;;;;;13.82;6.15;;;;;;;;;;4390548;32;318151;-81
2023/07/13 00:32:54;;;;;;;12.23;7.78;;;;;;;;;;4402420;32;317648;-81
2023/07/13 00:35:21;;;;;;;8.05;6.10;;;;;;;;;;4403061;32;317924;-80
2023/07/13 00:37:49;;;;;;;7.40;5.78;;;;;;;;;;4392491;32;316646;-80
2023/07/13 00:40:19;;;;;;;14.13;6.37;;;;;;;;;;4403216;32;316935;-82
2023/07/13 00:42:46;;;;;;;15.65;7.68;;;;;;;;;;4392184;32;318198;-80
2023/07/13 00:45:50;;;;;;;11.93;6.12;;;;;;;;;;4401084;32;339110;-80
2023/07/13 00:48:22;;;;;;;9.05;6.00;;;;;;;;;;4389390;32;418127;-80
2023/07/13 00:50:53;;;;;;;7.68;6.05;;;;;;;;;;4392626;32;317060;-80
2023/07/13 00:53:21;;;;;;;11.07;5.50;;;;;;;;;;4403446;32;316791;-80
2023/07/13 00:55:54;;;;;;;14.70;6.35;;;;;;;;;;4392483;32;317591;-80
2023/07/13 00:58:22;;;;;;;13.20;6.65;;;;;;;;;;4401190;32;317683;-80
2023/07/13 01:00:50;;;;;;;8.98;6.18;;;;;;;;;;4392548;32;317928;-80
2023/07/13 01:03:18;;;;;;;6.93;5.20;;;;;;;;;;4402338;32;316810;-81
2023/07/13 01:05:49;;;;;;;7.97;4.70;;;;;;;;;;4392998;32;316949;-81
2023/07/13 01:08:17;;;;;;;8.02;4.85;;;;;;;;;;4402647;32;316595;-80
2023/07/13 01:10:54;;;;;;;10.27;5.82;;;;;;;;;;4392510;32;317059;-80
2023/07/13 01:13:23;;;;;;;7.20;4.55;;;;;;;;;;4402317;32;317594;-80
2023/07/13 01:15:53;;;;;;;11.20;4.37;;;;;;;;;;4391704;32;316876;-81
2023/07/13 01:18:24;;;;;;;6.85;4.75;;;;;;;;;;4402194;32;318043;-81
2023/07/13 01:20:58;;;;;;;10.27;5.05;;;;;;;;;;4390844;32;387272;-81
2023/07/13 01:23:27;;;;;;;8.73;5.82;;;;;;;;;;4396657;32;317897;-82
2023/07/13 01:25:55;;;;;;;9.15;5.45;;;;;;;;;;4402098;32;317069;-82
2023/07/13 01:28:26;;;;;;;7.65;4.87;;;;;;;;;;4402184;32;340859;-81
2023/07/13 01:30:55;;;;;;;10.63;5.32;;;;;;;;;;4388831;32;416186;-81
2023/07/13 01:33:23;;;;;;;12.65;5.28;;;;;;;;;;4401837;32;316973;-81
2023/07/13 01:35:50;;;;;;;11.02;6.65;;;;;;;;;;4391234;32;318034;-81
2023/07/13 01:38:21;;;;;;;7.75;4.80;;;;;;;;;;4402863;32;317796;-81
2023/07/13 01:40:48;;;;;;;6.87;5.05;;;;;;;;;;4392830;32;316686;-81
2023/07/13 01:43:16;;;;;;;9.02;5.03;;;;;;;;;;4402338;32;333117;-81
2023/07/13 01:45:44;;;;;;;9.30;5.47;;;;;;;;;;4392277;32;316559;-81
2023/07/13 01:48:12;;;;;;;10.50;5.90;;;;;;;;;;4400118;32;316656;-84
2023/07/13 01:50:40;;;;;;;6.47;5.18;;;;;;;;;;4391162;32;317706;-80
2023/07/13 01:53:07;;;;;;;11.50;5.03;;;;;;;;;;4402895;32;316716;-81
2023/07/13 01:55:37;;;;;;;9.80;5.90;;;;;;;;;;4390859;32;317791;-81
2023/07/13 01:58:05;;;;;;;8.55;5.45;;;;;;;;;;4401305;32;316718;-81
2023/07/13 02:00:32;;;;;;;7.68;5.75;;;;;;;;;;4392311;32;317056;-82
2023/07/13 02:03:00;;;;;;;9.07;5.80;;;;;;;;;;4401765;32;317059;-81
2023/07/13 02:05:27;;;;;;;9.82;6.05;;;;;;;;;;4391551;32;316718;-82
2023/07/13 02:07:55;;;;;;;7.78;5.32;;;;;;;;;;4401592;32;316800;-81
2023/07/13 02:10:22;;;;;;;7.12;5.00;;;;;;;;;;4401231;32;316759;-80
2023/07/13 02:12:52;;;;;;;9.18;5.25;;;;;;;;;;4391590;32;316732;-80
2023/07/13 02:15:20;;;;;;;8.32;5.47;;;;;;;;;;4402155;32;317215;-81
2023/07/13 02:17:48;;;;;;;10.73;6.55;;;;;;;;;;4391558;32;316758;-81
2023/07/13 02:20:15;;;;;;;11.15;5.62;;;;;;;;;;4402080;32;317535;-81
2023/07/13 02:22:43;;;;;;;12.90;5.87;;;;;;;;;;4391951;32;318003;-81
2023/07/13 02:25:10;;;;;;;10.10;5.03;;;;;;;;;;4401737;32;317853;-87
2023/07/13 02:27:38;;;;;;;7.57;5.05;;;;;;;;;;4389727;32;318085;-81
2023/07/13 02:30:08;;;;;;;10.48;5.75;;;;;;;;;;4401895;32;316789;-81
2023/07/13 02:32:35;;;;;;;7.72;5.43;;;;;;;;;;4391620;32;317797;-81
2023/07/13 02:35:03;;;;;;;8.15;5.60;;;;;;;;;;4401607;32;340303;-80
2023/07/13 02:37:31;;;;;;;11.55;5.68;;;;;;;;;;4391179;32;316605;-81
2023/07/13 02:39:59;;;;;;;7.53;5.40;;;;;;;;;;4401386;32;317847;-81
2023/07/13 02:42:26;;;;;;;10.88;6.32;;;;;;;;;;4393938;32;316688;-86
2023/07/13 02:44:54;;;;;;;10.18;7.07;;;;;;;;;;4401563;32;317884;-81
2023/07/13 02:47:22;;;;;;;12.68;5.70;;;;;;;;;;4400517;32;318135;-80
2023/07/13 02:49:50;;;;;;;9.95;5.87;;;;;;;;;;4389647;32;347598;-81
2023/07/13 02:52:17;;;;;;;21.77;6.30;;;;;;;;;;4401852;32;316859;-81
2023/07/13 02:54:45;;;;;;;7.95;5.60;;;;;;;;;;4390225;32;317956;-80
2023/07/13 02:57:12;;;;;;;8.85;5.47;;;;;;;;;;4400834;32;316824;-80
2023/07/13 02:59:39;;;;;;;8.20;5.47;;;;;;;;;;4391319;32;316602;-81
2023/07/13 03:02:07;;;;;;;9.50;6.37;;;;;;;;;;4400772;32;316545;-81
2023/07/13 03:04:36;;;;;;;12.57;6.55;;;;;;;;;;4390763;32;317082;-81
2023/07/13 03:07:04;;;;;;;8.02;6.35;;;;;;;;;;4394767;32;317916;-82
2023/07/13 03:09:32;;;;;;;15.63;6.72;;;;;;;;;;4391057;32;316813;-81
2023/07/13 03:11:59;;;;;;;9.85;6.05;;;;;;;;;;4401085;32;317700;-81
2023/07/13 03:14:26;;;;;;;8.75;5.93;;;;;;;;;;4389538;32;362907;-82
2023/07/13 03:16:54;;;;;;;9.30;6.10;;;;;;;;;;4400377;32;316856;-80
2023/07/13 03:19:22;;;;;;;17.02;6.97;;;;;;;;;;4401382;32;316699;-81
2023/07/13 03:21:51;;;;;;;17.48;7.18;;;;;;;;;;4389860;32;317890;-80
2023/07/13 03:24:19;;;;;;;14.40;6.93;;;;;;;;;;4401030;32;317957;-82
2023/07/13 03:26:46;;;;;;;10.40;6.65;;;;;;;;;;4390037;32;317871;-83
2023/07/13 03:29:13;;;;;;;11.65;6.60;;;;;;;;;;4401558;32;318063;-81
2023/07/13 03:31:41;;;;;;;13.43;6.95;;;;;;;;;;4390979;32;319018;-81
2023/07/13 03:34:09;;;;;;;12.43;6.60;;;;;;;;;;4374650;32;318224;-81
2023/07/13 03:36:36;;;;;;;9.52;7.18;;;;;;;;;;4400670;32;317733;-81
2023/07/13 03:39:08;;;;;;;9.98;6.43;;;;;;;;;;4389810;32;317337;-81
2023/07/13 03:41:35;;;;;;;10.25;6.70;;;;;;;;;;4401409;32;317008;-80
2023/07/13 03:44:03;;;;;;;8.48;6.53;;;;;;;;;;4389582;32;317776;-81
2023/07/13 03:46:30;;;;;;;9.88;7.00;;;;;;;;;;4401016;32;317129;-80
2023/07/13 03:48:58;;;;;;;14.73;8.25;;;;;;;;;;4389639;32;316727;-81
2023/07/13 03:51:26;;;;;;;9.05;6.22;;;;;;;;;;4400167;32;317745;-80
2023/07/13 03:53:53;;;;;;;14.68;6.65;;;;;;;;;;4389873;32;316713;-81
2023/07/13 03:56:23;;;;;;;8.77;5.97;;;;;;;;;;4401185;32;317977;-81
2023/07/13 03:58:52;;;;;;;9.10;6.50;;;;;;;;;;4396092;32;316667;-80
2023/07/13 04:01:22;;;;;;;7.87;5.93;;;;;;;;;;4400920;32;316666;-83
2023/07/13 04:03:50;;;;;;;9.88;6.45;;;;;;;;;;4400091;32;316705;-79
2023/07/13 04:06:21;;;;;;;9.48;6.57;;;;;;;;;;4389449;32;416469;-79
2023/07/13 04:08:51;;;;;;;12.25;5.75;;;;;;;;;;4403984;32;316455;-78
2023/07/13 04:11:19;;;;;;;10.82;6.43;;;;;;;;;;4390224;32;417992;-79
2023/07/13 04:13:49;;;;;;;12.40;6.45;;;;;;;;;;4402716;32;320498;-79
2023/07/13 04:16:18;;;;;;;14.35;6.90;;;;;;;;;;4389498;32;419891;-79
2023/07/13 04:18:46;;;;;;;12.27;5.93;;;;;;;;;;4402992;32;317940;-79
2023/07/13 04:21:14;;;;;;;9.13;6.00;;;;;;;;;;4392154;32;318716;-78
2023/07/13 04:23:42;;;;;;;10.68;7.40;;;;;;;;;;4402668;32;316925;-79
2023/07/13 04:26:10;;;;;;;14.95;8.35;;;;;;;;;;4393321;32;317737;-79
2023/07/13 04:28:37;;;;;;;11.73;8.75;;;;;;;;;;4403332;32;317760;-78
2023/07/13 04:31:06;;;;;;;14.85;9.32;;;;;;;;;;4391438;32;322818;-79
2023/07/13 04:33:33;;;;;;;8.40;7.50;;;;;;;;;;4403098;32;317755;-79
2023/07/13 04:36:01;;;;;;;15.23;7.50;;;;;;;;;;4393780;32;316946;-80
2023/07/13 04:38:31;;;;;;;15.30;7.40;;;;;;;;;;4402816;32;317653;-81
2023/07/13 04:41:00;;;;;;;21.10;7.82;;;;;;;;;;4393380;32;318103;-81
2023/07/13 04:43:29;;;;;;;11.05;6.45;;;;;;;;;;4401807;32;317714;-81
2023/07/13 04:45:57;;;;;;;11.05;7.22;;;;;;;;;;4393629;32;317914;-81
2023/07/13 04:48:26;;;;;;;13.62;6.68;;;;;;;;;;4403055;32;317676;-81
2023/07/13 04:50:58;;;;;;;11.95;7.47;;;;;;;;;;4392490;32;317812;-79
2023/07/13 04:53:26;;;;;;;14.30;7.55;;;;;;;;;;4403129;32;317751;-80
2023/07/13 04:55:53;;;;;;;12.18;7.68;;;;;;;;;;4393162;32;318050;-79
2023/07/13 04:58:21;;;;;;;14.27;7.97;;;;;;;;;;4402429;32;317697;-79
2023/07/13 05:00:48;;;;;;;11.00;7.18;;;;;;;;;;4403339;32;317816;-79
2023/07/13 05:03:16;;;;;;;13.62;8.48;;;;;;;;;;4388691;32;417260;-78
2023/07/13 05:05:45;;;;;;;10.45;7.90;;;;;;;;;;4403404;32;317729;-78
2023/07/13 05:08:12;;;;;;;12.57;8.70;;;;;;;;;;4392553;32;317673;-79
2023/07/13 05:10:39;;;;;;;9.18;8.20;;;;;;;;;;4403433;32;317704;-79
2023/07/13 05:13:07;;;;;;;12.07;7.55;;;;;;;;;;4390778;32;316631;-79
2023/07/13 05:15:34;;;;;;;17.58;8.52;;;;;;;;;;4402706;32;318200;-79
2023/07/13 05:18:02;;;;;;;11.43;8.00;;;;;;;;;;4390275;32;317948;-80
2023/07/13 05:20:29;;;;;;;15.07;9.32;;;;;;;;;;4402830;32;318084;-79
2023/07/13 05:22:58;;;;;;;15.55;9.95;;;;;;;;;;4390951;32;346867;-80
2023/07/13 05:25:25;;;;;;;18.52;9.35;;;;;;;;;;4402246;32;317829;-80
2023/07/13 05:27:53;;;;;;;15.32;8.48;;;;;;;;;;4389300;32;317853;-88
2023/07/13 05:30:20;;;;;;;18.00;9.40;;;;;;;;;;4402778;32;317681;-79
2023/07/13 05:32:47;;;;;;;20.05;9.95;;;;;;;;;;4402048;32;338671;-86
2023/07/13 05:35:15;;;;;;;16.75;8.82;;;;;;;;;;4391472;32;317669;-89
2023/07/13 05:37:43;;;;;;;19.37;8.98;;;;;;;;;;4401020;32;317757;-86
2023/07/13 05:40:13;;;;;;;19.70;8.80;;;;;;;;;;4390645;32;317829;-85
2023/07/13 05:42:41;;;;;;;19.48;9.88;;;;;;;;;;4400820;32;317707;-85
2023/07/13 05:45:09;;;;;;;24.65;9.80;;;;;;;;;;4391960;32;317783;-83
2023/07/13 05:47:37;;;;;;;21.25;9.02;;;;;;;;;;4400446;32;317804;-82
2023/07/13 05:50:04;;;;;;;22.27;9.82;;;;;;;;;;4391986;32;317645;-80
2023/07/13 05:52:32;;;;;;;27.15;8.45;;;;;;;;;;4400202;32;317713;-80
2023/07/13 05:54:59;;;;;;;17.98;9.07;;;;;;;;;;4392139;32;317655;-82
2023/07/13 05:57:28;;;;;;;24.00;9.13;;;;;;;;;;4400321;32;317893;-82
2023/07/13 05:59:55;;;;;;;16.30;11.27;;;;;;;;;;4391153;32;366706;-81
2023/07/13 06:02:22;;;;;;;18.17;10.35;;;;;;;;;;4401491;32;319119;-81
2023/07/13 06:04:50;;;;;;;12.90;9.07;;;;;;;;;;4401804;32;318755;-81
2023/07/13 06:07:17;;;;;;;13.60;9.65;;;;;;;;;;4388942;32;417112;-81
2023/07/13 06:09:45;;;;;;;17.77;9.43;;;;;;;;;;4401567;32;318016;-82
2023/07/13 06:12:12;;;;;;;14.20;9.25;;;;;;;;;;4391573;32;317905;-81
2023/07/13 06:14:41;;;;;;;21.98;8.73;;;;;;;;;;4402265;32;317921;-81
2023/07/13 06:17:09;;;;;;;23.75;9.55;;;;;;;;;;4391395;32;317827;-83
2023/07/13 06:19:37;;;;;;;12.75;8.10;;;;;;;;;;4400918;32;317777;-81
2023/07/13 06:22:05;;;;;;;14.50;9.30;;;;;;;;;;4389442;32;320175;-81
2023/07/13 06:24:32;;;;;;;16.52;9.45;;;;;;;;;;4401335;32;354171;-80
2023/07/13 06:27:00;;;;;;;15.10;8.27;;;;;;;;;;4389645;32;317957;-83
2023/07/13 06:29:28;;;;;;;11.10;7.68;;;;;;;;;;4401227;32;317864;-82
2023/07/13 06:31:56;;;;;;;11.85;8.00;;;;;;;;;;4391318;32;317912;-81
2023/07/13 06:34:24;;;;;;;12.50;8.68;;;;;;;;;;4401977;32;317946;-80
2023/07/13 06:36:51;;;;;;;15.00;7.62;;;;;;;;;;4391177;32;317708;-83
2023/07/13 06:39:19;;;;;;;14.27;7.62;;;;;;;;;;4401026;32;317931;-81
2023/07/13 06:41:46;;;;;;;25.80;8.20;;;;;;;;;;4401970;32;317764;-82
2023/07/13 06:44:13;;;;;;;13.18;7.43;;;;;;;;;;4391060;32;318095;-81
2023/07/13 06:46:40;;;;;;;14.13;8.15;;;;;;;;;;4401095;32;317696;-94
2023/07/13 06:49:10;;;;;;;13.55;8.65;;;;;;;;;;4390245;32;317853;-94
2023/07/13 06:51:38;;;;;;;16.83;7.90;;;;;;;;;;4400802;32;317979;-95
2023/07/13 06:54:05;;;;;;;9.95;7.53;;;;;;;;;;4390904;32;317509;-91
2023/07/13 06:56:33;;;;;;;12.25;7.60;;;;;;;;;;4399270;32;316339;-85
2023/07/13 06:59:00;;;;;;;11.10;7.47;;;;;;;;;;4390889;32;317667;-85
2023/07/13 07:01:27;;;;;;;8.43;7.00;;;;;;;;;;4401988;32;317671;-85
2023/07/13 07:03:55;;;;;;;8.75;7.22;;;;;;;;;;4391214;32;317219;-85
2023/07/13 07:06:24;;;;;;;14.38;8.10;;;;;;;;;;4402031;32;316508;-85
2023/07/13 07:08:53;;;;;;;15.45;7.68;;;;;;;;;;4390107;32;317833;-87
2023/07/13 07:11:23;;;;;;;9.30;7.53;;;;;;;;;;4400711;32;317835;-85
2023/07/13 07:13:51;;;;;;;13.85;7.60;;;;;;;;;;4400760;32;316875;-85
2023/07/13 07:16:19;;;;;;;13.13;7.85;;;;;;;;;;4388495;32;417018;-82
2023/07/13 07:18:47;;;;;;;16.25;7.90;;;;;;;;;;4401573;32;317924;-82
2023/07/13 07:21:15;;;;;;;12.75;6.80;;;;;;;;;;4391188;32;318016;-82
2023/07/13 07:23:45;;;;;;;10.32;7.18;;;;;;;;;;4399619;32;318109;-81
2023/07/13 07:26:12;;;;;;;22.37;7.53;;;;;;;;;;4391315;32;317901;-83
2023/07/13 07:28:40;;;;;;;9.07;7.05;;;;;;;;;;4401036;32;318128;-82
2023/07/13 07:31:07;;;;;;;14.87;6.93;;;;;;;;;;4388373;32;317031;-82
2023/07/13 07:33:35;;;;;;;14.38;6.68;;;;;;;;;;4398503;32;349904;-82
2023/07/13 07:36:03;;;;;;;10.75;6.72;;;;;;;;;;4390567;32;317824;-81
2023/07/13 07:38:30;;;;;;;13.85;7.25;;;;;;;;;;4400969;32;317810;-81
2023/07/13 07:40:59;;;;;;;11.93;6.70;;;;;;;;;;4389806;32;317735;-83
2023/07/13 07:43:27;;;;;;;9.07;6.32;;;;;;;;;;4400924;32;319642;-82
2023/07/13 07:45:54;;;;;;;10.55;6.50;;;;;;;;;;4388877;32;317060;-83
2023/07/13 07:48:22;;;;;;;13.07;7.43;;;;;;;;;;4400578;32;318159;-82
2023/07/13 07:50:49;;;;;;;10.85;7.05;;;;;;;;;;4399693;32;317924;-83
2023/07/13 07:53:17;;;;;;;13.13;6.97;;;;;;;;;;4385184;32;416914;-83
2023/07/13 07:55:45;;;;;;;18.73;7.72;;;;;;;;;;4400256;32;317693;-83
2023/07/13 07:58:13;;;;;;;14.38;6.78;;;;;;;;;;4388951;32;317599;-83
2023/07/13 08:00:41;;;;;;;12.82;6.87;;;;;;;;;;4399311;32;318027;-83
2023/07/13 08:03:08;;;;;;;16.00;7.25;;;;;;;;;;4390143;32;317726;-83
2023/07/13 08:05:36;;;;;;;8.18;5.87;;;;;;;;;;4398322;32;317864;-83
2023/07/13 08:08:05;;;;;;;8.57;6.10;;;;;;;;;;4386514;32;317241;-84
2023/07/13 08:10:32;;;;;;;7.32;5.47;;;;;;;;;;4400945;32;315528;-83
2023/07/13 08:12:59;;;;;;;12.70;6.03;;;;;;;;;;4390405;32;317078;-85
2023/07/13 08:15:28;;;;;;;7.80;6.87;;;;;;;;;;4400043;32;317690;-85
2023/07/13 08:17:56;;;;;;;10.00;6.43;;;;;;;;;;4388466;32;316635;-82
2023/07/13 08:20:24;;;;;;;9.88;6.78;;;;;;;;;;4401117;32;317795;-84
2023/07/13 08:22:51;;;;;;;10.20;7.03;;;;;;;;;;4390601;32;316684;-84
2023/07/13 08:25:20;;;;;;;7.32;5.82;;;;;;;;;;4400098;32;317992;-81
2023/07/13 08:27:47;;;;;;;11.10;7.05;;;;;;;;;;4400811;32;316687;-83
2023/07/13 08:30:15;;;;;;;10.93;6.55;;;;;;;;;;4389549;32;349403;-81
2023/07/13 08:32:44;;;;;;;10.48;7.47;;;;;;;;;;4399316;32;317664;-81
2023/07/13 08:35:11;;;;;;;11.35;7.03;;;;;;;;;;4390822;32;317757;-81
2023/07/13 08:37:39;;;;;;;13.13;6.80;;;;;;;;;;4399795;32;336664;-81
2023/07/13 08:40:09;;;;;;;10.77;6.12;;;;;;;;;;4390677;32;317668;-84
2023/07/13 08:42:40;;;;;;;8.48;6.72;;;;;;;;;;4399924;32;317688;-82
2023/07/13 08:45:19;;;;;;;10.57;6.43;;;;;;;;;;4390955;32;316592;-83
2023/07/13 08:47:54;;;;;;;7.60;6.43;;;;;;;;;;4399057;32;317740;-82
2023/07/13 08:50:26;;;;;;;8.35;6.72;;;;;;;;;;4388531;32;386790;-83
2023/07/13 08:52:56;;;;;;;10.32;6.87;;;;;;;;;;4391750;32;316806;-82
2023/07/13 08:55:28;;;;;;;10.23;7.22;;;;;;;;;;4403400;32;317500;-83
2023/07/13 08:58:03;;;;;;;10.38;7.35;;;;;;;;;;4392390;32;317516;-83
2023/07/13 09:00:38;;;;;;;12.35;6.78;;;;;;;;;;4403711;32;317846;-83
2023/07/13 09:03:20;;;;;;;15.93;7.18;;;;;;;;;;4390994;32;350870;-84
2023/07/13 09:05:52;;;;;;;10.55;7.20;;;;;;;;;;4403300;32;317814;-84
2023/07/13 09:08:39;;;;;;;10.07;6.40;;;;;;;;;;4388684;32;417438;-83
2023/07/13 09:11:21;;;;;;;10.38;7.05;;;;;;;;;;4392083;32;317626;-83
2023/07/13 09:13:59;;;;;;;15.65;6.60;;;;;;;;;;4402351;32;317789;-83
2023/07/13 09:16:26;;;;;;;7.75;6.22;;;;;;;;;;4390381;32;388088;-83
2023/07/13 09:19:01;;;;;;;9.55;7.20;;;;;;;;;;4392025;32;316467;-83
2023/07/13 09:21:33;;;;;;;10.23;6.57;;;;;;;;;;4403419;32;316884;-82
2023/07/13 09:24:02;;;;;;;9.95;6.28;;;;;;;;;;4390831;32;318009;-82
2023/07/13 09:26:33;;;;;;;7.68;5.95;;;;;;;;;;4402142;32;316651;-82
2023/07/13 09:29:12;;;;;;;9.98;6.93;;;;;;;;;;4392017;32;316981;-83
2023/07/13 09:31:43;;;;;;;9.75;6.57;;;;;;;;;;4402105;32;317062;-83
2023/07/13 09:34:15;;;;;;;6.93;5.93;;;;;;;;;;4390904;32;316877;-83
2023/07/13 09:36:44;;;;;;;9.30;5.90;;;;;;;;;;4401072;32;328922;-82
2023/07/13 09:39:22;;;;;;;7.85;6.35;;;;;;;;;;4392094;32;331441;-82
2023/07/13 09:41:55;;;;;;;10.32;5.93;;;;;;;;;;4401329;32;340423;-82
2023/07/13 09:44:32;;;;;;;9.77;6.40;;;;;;;;;;4386786;32;416927;-82
2023/07/13 09:46:59;;;;;;;8.65;6.25;;;;;;;;;;4391654;32;316494;-88
2023/07/13 09:49:30;;;;;;;7.93;5.95;;;;;;;;;;4402242;32;318736;-82
2023/07/13 09:52:04;;;;;;;9.95;6.22;;;;;;;;;;4400541;32;316626;-88
2023/07/13 09:54:35;;;;;;;8.63;5.93;;;;;;;;;;4412647;32;316533;-87
2023/07/13 09:57:05;;;;;;;17.95;5.62;;;;;;;;;;4403205;32;326814;-85
2023/07/13 09:59:40;;;;;;;5.82;5.25;;;;;;;;;;4411402;32;317104;-85
2023/07/13 10:02:25;;;;;;;7.60;5.57;;;;;;;;;;4403579;32;316861;-84
2023/07/13 10:05:00;;;;;;;8.35;5.35;;;;;;;;;;4400748;32;316134;-87
2023/07/13 10:07:28;;;;;;;9.10;5.28;;;;;;;;;;4406705;32;316631;-84
2023/07/13 10:09:57;;;;;;;7.60;5.03;;;;;;;;;;4393155;32;354358;-92
2023/07/13 10:12:27;;;;;;;12.15;5.75;;;;;;;;;;4402038;32;316905;-84
2023/07/13 10:14:58;;;;;;;7.93;5.90;;;;;;;;;;4391053;32;317977;-85
2023/07/13 10:17:31;;;;;;;8.02;5.25;;;;;;;;;;4400873;32;316678;-84
2023/07/13 10:20:12;;;;;;;8.50;6.30;;;;;;;;;;4391491;32;317075;-84
2023/07/13 10:22:47;;;;;;;12.20;5.55;;;;;;;;;;4400656;32;317055;-91
2023/07/13 10:25:22;;;;;;;7.45;5.60;;;;;;;;;;4388824;32;317741;-85
2023/07/13 10:27:52;;;;;;;5.90;4.95;;;;;;;;;;4402109;32;317004;-86
2023/07/13 10:30:25;;;;;;;5.78;5.07;;;;;;;;;;4387340;32;416335;-82
2023/07/13 10:32:53;;;;;;;9.48;5.90;;;;;;;;;;4391714;32;316908;-82
2023/07/13 10:35:23;;;;;;;11.32;5.68;;;;;;;;;;4401419;32;333278;-83
2023/07/13 10:37:55;;;;;;;6.70;5.90;;;;;;;;;;4401468;32;317756;-83
2023/07/13 10:40:29;;;;;;;9.20;6.07;;;;;;;;;;4386409;32;416132;-83
2023/07/13 10:43:00;;;;;;;10.15;6.07;;;;;;;;;;4389766;32;317118;-83
2023/07/13 10:45:30;;;;;;;8.43;5.80;;;;;;;;;;4399620;32;318155;-83
2023/07/13 10:47:58;;;;;;;8.48;6.62;;;;;;;;;;4391503;32;317143;-84
2023/07/13 10:50:30;;;;;;;10.55;6.47;;;;;;;;;;4400841;32;316769;-82
2023/07/13 10:53:03;;;;;;;8.95;5.93;;;;;;;;;;4391131;32;317928;-83
2023/07/13 10:55:41;;;;;;;10.65;6.30;;;;;;;;;;4401929;32;316779;-83
2023/07/13 10:58:15;;;;;;;10.77;6.50;;;;;;;;;;4389808;32;318202;-82
2023/07/13 11:00:50;;;;;;;8.95;6.32;;;;;;;;;;4402161;32;317804;-84
2023/07/13 11:03:21;;;;;;;8.32;6.82;;;;;;;;;;4387269;32;416562;-82
2023/07/13 11:06:10;;;;;;;9.30;6.62;;;;;;;;;;4401245;32;316747;-81
2023/07/13 11:08:40;;;;;;;7.57;6.30;;;;;;;;;;4388145;32;417185;-80
2023/07/13 11:11:42;;;;;;;9.43;6.20;;;;;;;;;;4390761;32;317587;-82
2023/07/13 11:14:32;;;;;;;7.82;5.57;;;;;;;;;;4386793;32;316751;-81
2023/07/13 11:16:59;;;;;;;9.33;6.73;;;;;;;;;;4388499;32;340331;-81
2023/07/13 11:19:52;;;;;;;13.00;5.97;;;;;;;;;;4401806;32;316937;-81
2023/07/13 11:22:27;;;;;;;7.43;5.78;;;;;;;;;;4387888;32;418298;-82
2023/07/13 11:25:03;;;;;;;7.55;5.72;;;;;;;;;;4389775;32;317012;-82
2023/07/13 11:27:44;;;;;;;14.02;6.80;;;;;;;;;;4400401;32;316717;-81
2023/07/13 11:30:24;;;;;;;12.85;6.20;;;;;;;;;;4390110;32;318106;-82
2023/07/13 11:33:06;;;;;;;8.38;6.00;;;;;;;;;;4390713;32;317746;-82
2023/07/13 11:35:38;;;;;;;7.90;5.60;;;;;;;;;;4400234;32;316974;-81
2023/07/13 11:38:16;;;;;;;11.98;6.05;;;;;;;;;;4388476;32;316967;-81
2023/07/13 11:40:46;;;;;;;9.65;6.30;;;;;;;;;;4400743;32;329321;-81
2023/07/13 11:43:15;;;;;;;11.30;6.53;;;;;;;;;;4389310;32;316917;-81
2023/07/13 11:45:43;;;;;;;9.98;6.25;;;;;;;;;;4400713;32;317842;-81
2023/07/13 11:48:25;;;;;;;8.88;6.25;;;;;;;;;;4389171;32;317027;-81
2023/07/13 11:50:57;;;;;;;6.95;5.80;;;;;;;;;;4391379;32;316871;-82
2023/07/13 11:53:30;;;;;;;6.90;5.85;;;;;;;;;;4399423;32;316846;-81
2023/07/13 11:55:58;;;;;;;10.60;5.00;;;;;;;;;;4387830;32;316954;-81
2023/07/13 11:58:29;;;;;;;6.60;5.12;;;;;;;;;;4400316;32;317970;-81
2023/07/13 12:01:01;;;;;;;14.40;6.22;;;;;;;;;;4390285;32;316828;-82
2023/07/13 12:03:30;;;;;;;5.95;5.35;;;;;;;;;;4400916;32;317906;-81
2023/07/13 12:06:02;;;;;;;9.13;5.68;;;;;;;;;;4388817;32;316787;-81
2023/07/13 12:08:31;;;;;;;6.45;5.40;;;;;;;;;;4401128;32;317144;-81
2023/07/13 12:11:02;;;;;;;6.75;5.28;;;;;;;;;;4390213;32;316971;-81
2023/07/13 12:13:30;;;;;;;8.82;5.55;;;;;;;;;;4401092;32;316748;-81
2023/07/13 12:15:58;;;;;;;8.53;5.73;;;;;;;;;;4387932;32;342500;-81
2023/07/13 12:18:33;;;;;;;5.72;4.25;;;;;;;;;;4401082;32;315687;-81
2023/07/13 12:21:03;;;;;;;7.30;4.87;;;;;;;;;;4391030;32;316843;-81
2023/07/13 12:23:34;;;;;;;11.32;4.60;;;;;;;;;;4400451;32;316840;-81
2023/07/13 12:26:04;;;;;;;8.00;4.33;;;;;;;;;;4389078;32;331047;-81
2023/07/13 12:28:34;;;;;;;11.02;4.70;;;;;;;;;;4401828;32;316792;-81
2023/07/13 12:31:04;;;;;;;6.30;4.73;;;;;;;;;;4392829;32;317963;-81
2023/07/13 12:33:32;;;;;;;10.88;5.30;;;;;;;;;;4401845;32;358613;-81
2023/07/13 12:36:03;;;;;;;10.05;4.82;;;;;;;;;;4394022;32;317824;-81
2023/07/13 12:38:33;;;;;;;9.68;4.60;;;;;;;;;;4403751;32;316802;-81
2023/07/13 12:41:03;;;;;;;5.62;4.43;;;;;;;;;;4392593;32;316777;-81
2023/07/13 12:43:37;;;;;;;7.00;4.53;;;;;;;;;;4403762;32;317505;-81
2023/07/13 12:46:06;;;;;;;6.10;3.97;;;;;;;;;;4391841;32;316930;-81
2023/07/13 12:48:41;;;;;;;8.40;4.93;;;;;;;;;;4403000;32;316937;-81
2023/07/13 12:51:12;;;;;;;5.40;4.03;;;;;;;;;;4392894;32;316989;-82
2023/07/13 12:53:48;;;;;;;7.95;4.95;;;;;;;;;;4401967;32;316857;-82
2023/07/13 12:56:20;;;;;;;13.68;4.53;;;;;;;;;;4393012;32;316880;-82
2023/07/13 12:58:54;;;;;;;8.40;4.47;;;;;;;;;;4403103;32;317893;-81
2023/07/13 13:01:23;;;;;;;6.30;4.28;;;;;;;;;;4387504;32;416202;-80
2023/07/13 13:03:53;;;;;;;10.32;4.72;;;;;;;;;;4402923;32;316917;-81
2023/07/13 13:06:25;;;;;;;8.57;4.07;;;;;;;;;;4390095;32;417165;-81
2023/07/13 13:08:56;;;;;;;9.82;5.62;;;;;;;;;;4392960;32;316902;-81
2023/07/13 13:11:25;;;;;;;8.30;4.18;;;;;;;;;;4402770;32;316846;-81
2023/07/13 13:13:54;;;;;;;7.55;4.32;;;;;;;;;;4392733;32;316939;-81
2023/07/13 13:16:24;;;;;;;9.00;5.07;;;;;;;;;;4401938;32;315587;-81
2023/07/13 13:18:54;;;;;;;6.72;4.65;;;;;;;;;;4400909;32;316708;-83
2023/07/13 13:21:22;;;;;;;10.32;4.30;;;;;;;;;;4401733;32;316747;-81
2023/07/13 13:23:51;;;;;;;10.50;4.72;;;;;;;;;;4402029;32;317800;-81
2023/07/13 13:26:20;;;;;;;10.68;4.80;;;;;;;;;;4389402;32;417719;-81
2023/07/13 13:28:48;;;;;;;10.50;4.80;;;;;;;;;;4402349;32;317536;-81
2023/07/13 13:31:16;;;;;;;5.00;4.35;;;;;;;;;;4390391;32;317732;-81
2023/07/13 13:33:45;;;;;;;7.87;4.68;;;;;;;;;;4402275;32;316617;-81
2023/07/13 13:36:17;;;;;;;10.10;4.80;;;;;;;;;;4391773;32;316921;-82
2023/07/13 13:38:44;;;;;;;7.00;4.12;;;;;;;;;;4401479;32;317825;-82
2023/07/13 13:41:13;;;;;;;12.40;5.15;;;;;;;;;;4391413;32;316848;-82
2023/07/13 13:43:44;;;;;;;9.30;5.62;;;;;;;;;;4400612;32;317912;-82
2023/07/13 13:46:16;;;;;;;7.82;4.85;;;;;;;;;;4391544;32;316966;-82
2023/07/13 13:48:44;;;;;;;9.75;3.95;;;;;;;;;;4402852;32;317006;-82
2023/07/13 13:51:18;;;;;;;8.98;4.18;;;;;;;;;;4392605;32;316879;-82
2023/07/13 13:53:46;;;;;;;10.48;5.15;;;;;;;;;;4401400;32;316953;-82
2023/07/13 13:56:14;;;;;;;9.77;4.25;;;;;;;;;;4391794;32;317683;-83
2023/07/13 13:58:43;;;;;;;5.03;3.95;;;;;;;;;;4400148;32;316641;-82
2023/07/13 14:01:17;;;;;;;8.82;4.70;;;;;;;;;;4390734;32;316834;-82
2023/07/13 14:03:45;;;;;;;14.23;4.07;;;;;;;;;;4402721;32;316669;-86
2023/07/13 14:06:14;;;;;;;5.62;4.47;;;;;;;;;;4391137;32;317641;-84
2023/07/13 14:08:41;;;;;;;9.85;5.10;;;;;;;;;;4401669;32;316667;-84
2023/07/13 14:11:13;;;;;;;6.90;3.85;;;;;;;;;;4392182;32;316555;-84
2023/07/13 14:13:46;;;;;;;9.98;4.85;;;;;;;;;;4402488;32;317073;-84
2023/07/13 14:16:18;;;;;;;9.98;4.18;;;;;;;;;;4375561;32;316711;-84
2023/07/13 14:18:46;;;;;;;11.20;4.32;;;;;;;;;;4387540;32;317110;-83
2023/07/13 14:21:15;;;;;;;13.00;4.62;;;;;;;;;;4374830;32;317842;-83
2023/07/13 14:23:45;;;;;;;10.20;4.85;;;;;;;;;;4385695;32;317811;-84
2023/07/13 14:26:15;;;;;;;9.32;4.22;;;;;;;;;;4375990;32;317707;-84
2023/07/13 14:28:47;;;;;;;10.88;4.25;;;;;;;;;;4387397;32;316668;-84
2023/07/13 14:31:16;;;;;;;15.38;4.72;;;;;;;;;;4375092;32;317914;-84
2023/07/13 14:33:44;;;;;;;13.68;4.20;;;;;;;;;;4385770;32;317868;-83
2023/07/13 14:36:25;;;;;;;9.30;3.85;;;;;;;;;;4376101;32;317828;-84
2023/07/13 14:38:53;;;;;;;10.38;4.37;;;;;;;;;;4373356;32;316801;-84